createdAt,value
2022-11-20T00:01:28.196Z,96.71
2022-11-20T00:04:29.632Z,96.97
2022-11-20T00:07:48.650Z,97.52
2022-11-20T00:11:20.826Z,96.71
2022-11-20T00:14:20.803Z,96.61
2022-11-20T00:17:25.274Z,97.08
2022-11-20T00:20:43.310Z,96.64
2022-11-20T00:23:59.809Z,96.38
2022-11-20T00:27:04.140Z,96.24
2022-11-20T00:29:59.028Z,96.22
2022-11-20T00:33:06.931Z,96.29
2022-11-20T00:36:20.649Z,96.62
2022-11-20T00:39:35.050Z,96.46
2022-11-20T00:42:39.787Z,96.12
2022-11-20T00:45:55.831Z,96.27
2022-11-20T00:49:39.093Z,96.42
2022-11-20T00:52:35.415Z,96.29
2022-11-20T00:55:34.822Z,96.47
2022-11-20T00:59:25.842Z,96.21
2022-11-20T01:10:11.310Z,96.40
2022-11-20T01:14:09.901Z,96.69
2022-11-20T01:20:13.554Z,96.29
2022-11-20T01:23:28.113Z,96.43
2022-11-20T01:26:59.425Z,96.25
2022-11-20T01:30:00.931Z,96.37
2022-11-20T01:33:45.056Z,96.16
2022-11-20T01:40:11.544Z,95.78
2022-11-20T01:43:46.749Z,95.80
2022-11-20T01:47:56.463Z,95.96
2022-11-20T01:51:00.153Z,95.56
2022-11-20T01:53:59.960Z,95.24
2022-11-20T01:57:21.519Z,94.79
2022-11-20T02:00:55.129Z,95.49
2022-11-20T02:03:58.925Z,95.35
2022-11-20T02:07:35.078Z,94.53
2022-11-20T02:11:18.995Z,94.50
2022-11-20T02:14:49.404Z,94.62
2022-11-20T02:17:45.591Z,94.96
2022-11-20T02:20:49.383Z,94.71
2022-11-20T02:24:33.384Z,94.99
2022-11-20T02:28:12.145Z,95.34
2022-11-20T02:31:20.095Z,95.20
2022-11-20T02:34:16.785Z,95.56
2022-11-20T02:37:16.065Z,95.71
2022-11-20T02:40:32.169Z,96.02
2022-11-20T02:43:37.617Z,96.05
2022-11-20T02:46:50.449Z,95.65
2022-11-20T02:53:25.951Z,96.53
2022-11-20T02:56:39.072Z,96.01
2022-11-20T02:59:31.055Z,96.49
2022-11-20T03:02:45.999Z,96.16
2022-11-20T03:05:56.788Z,96.50
2022-11-20T03:09:16.409Z,96.62
2022-11-20T03:12:39.910Z,96.37
2022-11-20T03:15:33.979Z,96.37
2022-11-20T03:18:38.424Z,96.42
2022-11-20T03:21:44.664Z,95.86
2022-11-20T03:24:43.336Z,96.22
2022-11-20T03:28:35.320Z,96.47
2022-11-20T03:31:43.434Z,96.92
2022-11-20T03:35:00.853Z,97.31
2022-11-20T03:38:04.168Z,97.17
2022-11-20T03:41:16.892Z,96.76
2022-11-20T03:44:20.957Z,97.53
2022-11-20T03:47:35.125Z,97.17
2022-11-20T03:50:29.219Z,96.74
2022-11-20T03:53:28.096Z,97.17
2022-11-20T03:56:36.245Z,97.18
2022-11-20T03:59:42.416Z,97.05
2022-11-20T04:03:03.477Z,97.06
2022-11-20T04:06:57.408Z,97.02
2022-11-20T04:10:07.802Z,97.59
2022-11-20T04:13:14.011Z,97.68
2022-11-20T04:16:29.887Z,97.21
2022-11-20T04:19:33.139Z,97.35
2022-11-20T04:22:45.030Z,96.89
2022-11-20T04:25:57.469Z,96.57
2022-11-20T04:29:04.209Z,97.29
2022-11-20T04:32:08.575Z,97.25
2022-11-20T04:35:10.117Z,97.13
2022-11-20T04:38:14.832Z,97.11
2022-11-20T04:41:36.159Z,96.75
2022-11-20T04:44:30.657Z,96.70
2022-11-20T04:47:35.153Z,96.76
2022-11-20T04:51:03.677Z,97.11
2022-11-20T04:54:27.138Z,97.01
2022-11-20T04:57:29.576Z,97.25
2022-11-20T05:00:25.380Z,96.51
2022-11-20T05:03:26.321Z,96.79
2022-11-20T05:06:18.113Z,97.23
2022-11-20T05:09:10.839Z,97.27
2022-11-20T05:12:51.305Z,96.70
2022-11-20T05:15:59.274Z,96.92
2022-11-20T05:18:54.016Z,96.80
2022-11-20T05:22:08.661Z,97.05
2022-11-20T05:25:33.047Z,97.01
2022-11-20T05:29:08.435Z,96.67
2022-11-20T05:36:02.919Z,96.95
2022-11-20T05:39:36.862Z,96.64
2022-11-20T05:42:46.677Z,97.21
2022-11-20T05:46:41.458Z,97.53
2022-11-20T05:50:25.465Z,97.72
2022-11-20T05:53:33.876Z,97.27
2022-11-20T05:57:00.323Z,97.08
2022-11-20T06:00:33.080Z,97.01
2022-11-20T06:03:30.798Z,97.88
2022-11-20T06:06:56.173Z,97.57
2022-11-20T06:10:05.534Z,97.14
2022-11-20T06:13:19.241Z,97.88
2022-11-20T06:16:20.741Z,97.81
2022-11-20T06:19:24.690Z,97.61
2022-11-20T06:26:33.321Z,97.64
2022-11-20T06:30:18.776Z,97.46
2022-11-20T06:34:01.688Z,97.40
2022-11-20T06:37:16.612Z,97.48
2022-11-20T06:40:10.421Z,97.18
2022-11-20T06:43:04.886Z,96.90
2022-11-20T06:46:10.446Z,97.09
2022-11-20T06:49:25.587Z,97.02
2022-11-20T06:52:21.438Z,97.16
2022-11-20T06:55:11.007Z,97.54
2022-11-20T06:58:20.434Z,96.79
2022-11-20T07:01:10.572Z,97.19
2022-11-20T07:04:00.109Z,97.14
2022-11-20T07:07:13.200Z,96.95
2022-11-20T07:10:34.373Z,96.84
2022-11-20T07:13:30.270Z,97.32
2022-11-20T07:17:37.382Z,97.31
2022-11-20T07:21:08.249Z,97.20
2022-11-20T07:23:54.363Z,97.34
2022-11-20T07:26:41.727Z,97.00
2022-11-20T07:29:29.739Z,97.46
2022-11-20T07:35:53.003Z,97.16
2022-11-20T07:38:59.348Z,97.03
2022-11-20T07:41:56.295Z,97.13
2022-11-20T07:44:49.507Z,97.71
2022-11-20T07:47:38.791Z,97.15
2022-11-20T07:51:09.519Z,97.18
2022-11-20T07:54:11.563Z,97.56
2022-11-20T07:57:28.063Z,97.01
2022-11-20T08:00:16.596Z,96.62
2022-11-20T08:03:05.673Z,97.06
2022-11-20T08:05:52.346Z,96.66
2022-11-20T08:08:42.995Z,97.00
2022-11-20T08:11:47.955Z,96.70
2022-11-20T08:14:34.551Z,96.54
2022-11-20T08:17:20.519Z,95.78
2022-11-20T08:20:07.981Z,96.37
2022-11-20T08:22:53.836Z,96.34
2022-11-20T08:25:40.278Z,96.36
2022-11-20T08:28:26.445Z,95.95
2022-11-20T08:31:12.711Z,95.90
2022-11-20T08:33:59.336Z,96.08
2022-11-20T08:36:46.319Z,95.75
2022-11-20T08:39:32.755Z,96.08
2022-11-20T08:42:19.313Z,95.91
2022-11-20T08:45:07.292Z,95.93
2022-11-20T08:47:54.588Z,95.25
2022-11-20T08:50:40.476Z,94.79
2022-11-20T08:53:27.821Z,95.43
2022-11-20T08:56:14.548Z,95.48
2022-11-20T09:02:07.016Z,95.38
2022-11-20T09:04:54.487Z,94.94
2022-11-20T09:07:41.465Z,94.99
2022-11-20T09:10:28.959Z,94.95
2022-11-20T09:13:15.543Z,95.19
2022-11-20T09:16:07.640Z,95.13
2022-11-20T09:19:02.185Z,95.10
2022-11-20T09:22:01.286Z,94.83
2022-11-20T09:24:47.143Z,94.87
2022-11-20T09:27:33.911Z,94.12
2022-11-20T09:30:20.332Z,94.39
2022-11-20T09:33:07.683Z,93.75
2022-11-20T09:35:53.693Z,93.58
2022-11-20T09:38:40.329Z,93.20
2022-11-20T09:41:50.908Z,93.35
2022-11-20T09:45:06.192Z,93.46
2022-11-20T09:48:14.222Z,93.37
2022-11-20T09:51:11.745Z,93.08
2022-11-20T09:54:15.289Z,93.03
2022-11-20T09:57:07.207Z,92.93
2022-11-20T09:59:58.568Z,92.88
2022-11-20T10:02:50.537Z,92.96
2022-11-20T10:05:46.747Z,92.81
2022-11-20T10:09:03.585Z,92.86
2022-11-20T10:12:17.050Z,93.15
2022-11-20T10:15:12.221Z,93.25
2022-11-20T10:18:22.099Z,92.71
2022-11-20T10:21:37.258Z,92.42
2022-11-20T10:24:30.983Z,92.52
2022-11-20T10:27:43.435Z,92.08
2022-11-20T10:30:31.336Z,92.37
2022-11-20T10:33:21.812Z,92.09
2022-11-20T10:36:22.464Z,92.52
2022-11-20T10:39:25.296Z,91.74
2022-11-20T10:42:20.898Z,91.37
2022-11-20T10:45:22.824Z,91.88
2022-11-20T10:48:09.073Z,91.42
2022-11-20T10:51:04.427Z,91.51
2022-11-20T10:53:54.757Z,91.77
2022-11-20T10:56:54.236Z,91.25
2022-11-20T10:59:49.442Z,90.98
2022-11-20T11:02:40.943Z,91.33
2022-11-20T11:05:44.749Z,90.85
2022-11-20T11:08:37.171Z,90.90
2022-11-20T11:11:24.908Z,91.03
2022-11-20T11:14:13.913Z,91.23
2022-11-20T11:17:00.373Z,90.79
2022-11-20T11:19:47.054Z,90.86
2022-11-20T11:22:35.407Z,90.40
2022-11-20T11:25:23.162Z,90.93
2022-11-20T11:28:18.155Z,90.75
2022-11-20T11:31:05.351Z,90.33
2022-11-20T11:33:51.673Z,90.26
2022-11-20T11:36:38.416Z,90.21
2022-11-20T11:39:25.544Z,90.18
2022-11-20T11:42:18.970Z,89.81
2022-11-20T11:45:07.552Z,89.94
2022-11-20T11:47:55.838Z,90.00
2022-11-20T11:50:50.434Z,90.07
2022-11-20T11:53:41.989Z,90.24
2022-11-20T11:56:32.102Z,89.93
2022-11-20T11:59:49.693Z,90.65
2022-11-20T12:02:48.982Z,90.21
2022-11-20T12:05:45.027Z,89.28
2022-11-20T12:08:57.411Z,89.90
2022-11-20T12:11:52.552Z,89.63
2022-11-20T12:14:40.830Z,89.65
2022-11-20T12:17:27.127Z,89.48
2022-11-20T12:20:15.841Z,89.48
2022-11-20T12:23:23.930Z,89.75
2022-11-20T12:26:21.501Z,89.72
2022-11-20T12:30:10.174Z,89.67
2022-11-20T12:33:15.895Z,89.82
2022-11-20T12:36:06.066Z,90.04
2022-11-20T12:39:27.277Z,90.13
2022-11-20T12:42:54.355Z,89.29
2022-11-20T12:46:29.260Z,90.01
2022-11-20T12:49:27.857Z,89.74
2022-11-20T12:52:29.149Z,89.52
2022-11-20T12:55:41.997Z,89.29
2022-11-20T12:58:55.406Z,89.34
2022-11-20T13:02:02.079Z,89.34
2022-11-20T13:05:17.196Z,89.33
2022-11-20T13:08:20.613Z,89.40
2022-11-20T13:11:41.609Z,89.27
2022-11-20T13:15:30.282Z,89.19
2022-11-20T13:18:21.896Z,89.27
2022-11-20T13:21:35.699Z,89.51
2022-11-20T13:24:33.819Z,89.57
2022-11-20T13:27:32.204Z,90.22
2022-11-20T13:30:20.711Z,89.88
2022-11-20T13:33:26.958Z,89.22
2022-11-20T13:36:25.414Z,89.63
2022-11-20T13:39:12.756Z,89.25
2022-11-20T13:42:31.073Z,89.68
2022-11-20T13:45:29.032Z,89.46
2022-11-20T13:48:23.412Z,89.66
2022-11-20T13:51:35.755Z,89.66
2022-11-20T13:54:33.628Z,89.82
2022-11-20T13:57:57.425Z,89.74
2022-11-20T14:00:52.165Z,89.76
2022-11-20T14:06:48.419Z,89.67
2022-11-20T14:09:35.312Z,90.10
2022-11-20T14:12:24.501Z,90.04
2022-11-20T14:15:26.205Z,89.89
2022-11-20T14:18:21.392Z,90.44
2022-11-20T14:21:10.763Z,89.79
2022-11-20T14:24:07.751Z,89.69
2022-11-20T14:26:55.013Z,90.23
2022-11-20T14:29:42.816Z,90.41
2022-11-20T14:32:31.026Z,90.04
2022-11-20T14:35:29.987Z,90.24
2022-11-20T14:38:18.736Z,90.03
2022-11-20T14:41:20.794Z,90.00
2022-11-20T14:44:09.907Z,89.54
2022-11-20T14:46:56.679Z,89.92
2022-11-20T14:49:43.786Z,90.23
2022-11-20T14:52:32.093Z,90.22
2022-11-20T14:55:58.751Z,90.05
2022-11-20T14:58:58.854Z,89.82
2022-11-20T15:01:56.541Z,90.27
2022-11-20T15:04:50.823Z,90.04
2022-11-20T15:07:41.254Z,89.79
2022-11-20T15:10:29.205Z,89.91
2022-11-20T15:13:34.642Z,90.01
2022-11-20T15:16:22.501Z,90.59
2022-11-20T15:19:18.694Z,90.12
2022-11-20T15:22:17.360Z,90.36
2022-11-20T15:25:13.113Z,90.07
2022-11-20T15:27:59.292Z,90.00
2022-11-20T15:30:47.315Z,90.22
2022-11-20T15:33:34.336Z,90.26
2022-11-20T15:36:21.584Z,90.24
2022-11-20T15:39:09.322Z,90.18
2022-11-20T15:41:55.752Z,90.14
2022-11-20T15:44:42.091Z,90.10
2022-11-20T15:47:35.879Z,90.03
2022-11-20T15:50:23.336Z,89.87
2022-11-20T15:53:11.671Z,89.83
2022-11-20T15:55:58.401Z,90.03
2022-11-20T15:58:45.087Z,90.53
2022-11-20T16:01:33.872Z,90.08
2022-11-20T16:04:20.974Z,90.03
2022-11-20T16:07:07.412Z,90.11
2022-11-20T16:09:53.937Z,90.20
2022-11-20T16:12:58.937Z,89.77
2022-11-20T16:15:53.814Z,89.49
2022-11-20T16:18:40.132Z,89.57
2022-11-20T16:21:33.111Z,89.50
2022-11-20T16:24:19.608Z,89.59
2022-11-20T16:27:09.264Z,89.47
2022-11-20T16:29:56.049Z,89.37
2022-11-20T16:32:43.463Z,89.08
2022-11-20T16:35:31.632Z,89.16
2022-11-20T16:38:18.256Z,89.28
2022-11-20T16:41:14.814Z,89.05
2022-11-20T16:44:03.950Z,89.16
2022-11-20T16:46:50.444Z,89.03
2022-11-20T16:49:37.026Z,88.56
2022-11-20T16:52:23.532Z,88.68
2022-11-20T16:55:10.514Z,88.78
2022-11-20T16:57:57.673Z,89.19
2022-11-20T17:00:50.020Z,89.06
2022-11-20T17:03:38.916Z,88.62
2022-11-20T17:06:27.949Z,88.73
2022-11-20T17:09:14.676Z,88.54
2022-11-20T17:12:01.166Z,88.72
2022-11-20T17:14:47.750Z,88.40
2022-11-20T17:17:34.491Z,89.18
2022-11-20T17:20:23.621Z,89.06
2022-11-20T17:23:10.296Z,89.08
2022-11-20T17:26:07.627Z,89.30
2022-11-20T17:29:03.138Z,89.09
2022-11-20T17:31:59.594Z,89.24
2022-11-20T17:34:48.762Z,89.53
2022-11-20T17:37:35.228Z,90.00
2022-11-20T17:40:27.544Z,89.37
2022-11-20T17:43:14.573Z,89.03
2022-11-20T17:46:14.763Z,88.82
2022-11-20T17:49:23.047Z,89.04
2022-11-20T17:52:10.673Z,89.22
2022-11-20T17:54:59.615Z,89.47
2022-11-20T17:57:56.964Z,89.00
2022-11-20T18:00:45.447Z,89.38
2022-11-20T18:03:33.174Z,88.85
2022-11-20T18:06:25.475Z,89.35
2022-11-20T18:09:12.669Z,89.62
2022-11-20T18:11:58.795Z,89.32
2022-11-20T18:14:45.569Z,88.90
2022-11-20T18:17:37.411Z,88.96
2022-11-20T18:20:30.489Z,88.68
2022-11-20T18:23:19.195Z,88.91
2022-11-20T18:26:05.773Z,88.56
2022-11-20T18:28:55.266Z,88.76
2022-11-20T18:31:42.714Z,88.81
2022-11-20T18:34:29.125Z,88.95
2022-11-20T18:37:16.727Z,88.44
2022-11-20T18:40:03.676Z,88.89
2022-11-20T18:43:09.048Z,88.81
2022-11-20T18:46:03.176Z,88.41
2022-11-20T18:48:52.959Z,88.42
2022-11-20T18:51:46.158Z,88.31
2022-11-20T18:54:32.627Z,88.57
2022-11-20T18:57:23.561Z,88.24
2022-11-20T19:00:10.509Z,88.57
2022-11-20T19:02:57.592Z,88.49
2022-11-20T19:05:47.037Z,88.34
2022-11-20T19:08:40.717Z,88.10
2022-11-20T19:11:27.346Z,88.34
2022-11-20T19:14:16.678Z,88.35
2022-11-20T19:17:04.616Z,88.19
2022-11-20T19:20:03.141Z,88.14
2022-11-20T19:22:51.533Z,88.83
2022-11-20T19:25:38.598Z,88.10
2022-11-20T19:28:25.476Z,87.92
2022-11-20T19:31:14.380Z,88.45
2022-11-20T19:34:03.617Z,88.33
2022-11-20T19:36:51.093Z,88.08
2022-11-20T19:39:38.455Z,87.61
2022-11-20T19:42:25.677Z,87.88
2022-11-20T19:45:13.272Z,88.07
2022-11-20T19:48:07.760Z,88.10
2022-11-20T19:50:55.934Z,88.13
2022-11-20T19:53:42.727Z,88.38
2022-11-20T19:56:31.563Z,87.95
2022-11-20T19:59:18.642Z,87.70
2022-11-20T20:02:05.762Z,87.99
2022-11-20T20:04:56.918Z,87.66
2022-11-20T20:07:44.825Z,88.22
2022-11-20T20:10:31.642Z,87.59
2022-11-20T20:13:20.917Z,87.73
2022-11-20T20:16:12.326Z,87.81
2022-11-20T20:19:03.565Z,87.75
2022-11-20T20:21:54.058Z,87.98
2022-11-20T20:24:42.104Z,87.98
2022-11-20T20:27:31.879Z,88.00
2022-11-20T20:30:19.848Z,87.52
2022-11-20T20:33:06.920Z,87.96
2022-11-20T20:35:54.034Z,87.90
2022-11-20T20:38:42.956Z,88.14
2022-11-20T20:41:30.359Z,88.13
2022-11-20T20:44:35.619Z,87.73
2022-11-20T20:47:23.476Z,88.04
2022-11-20T20:50:12.064Z,88.41
2022-11-20T20:52:58.589Z,88.16
2022-11-20T20:55:57.572Z,88.04
2022-11-20T20:58:45.335Z,87.77
2022-11-20T21:01:31.716Z,87.53
2022-11-20T21:04:18.665Z,87.93
2022-11-20T21:07:05.761Z,87.82
2022-11-20T21:09:52.234Z,87.78
2022-11-20T21:12:40.610Z,88.09
2022-11-20T21:15:27.265Z,87.26
2022-11-20T21:18:13.441Z,87.55
2022-11-20T21:21:18.809Z,87.50
2022-11-20T21:24:06.916Z,87.78
2022-11-20T21:27:08.453Z,87.71
2022-11-20T21:29:55.121Z,87.89
2022-11-20T21:32:44.244Z,87.98
2022-11-20T21:35:30.293Z,88.26
2022-11-20T21:38:16.835Z,88.52
2022-11-20T21:41:08.246Z,88.69
2022-11-20T21:47:10.243Z,88.65
2022-11-20T21:49:59.609Z,88.92
2022-11-20T21:52:46.102Z,88.48
2022-11-20T21:55:32.769Z,88.42
2022-11-20T21:58:19.271Z,88.45
2022-11-20T22:01:09.367Z,88.18
2022-11-20T22:04:00.782Z,88.68
2022-11-20T22:06:50.279Z,88.61
2022-11-20T22:09:40.847Z,88.45
2022-11-20T22:12:33.894Z,88.26
2022-11-20T22:15:53.269Z,88.67
2022-11-20T22:18:28.864Z,88.41
2022-11-20T22:21:16.409Z,88.39
2022-11-20T22:24:02.884Z,88.65
2022-11-20T22:26:49.242Z,88.67
2022-11-20T22:29:40.640Z,89.12
2022-11-20T22:32:29.157Z,89.15
2022-11-20T22:35:16.095Z,89.14
2022-11-20T22:38:07.808Z,88.83
2022-11-20T22:40:55.475Z,89.15
2022-11-20T22:43:44.964Z,88.71
2022-11-20T22:46:33.769Z,88.79
2022-11-20T22:49:22.751Z,88.70
2022-11-20T22:52:09.481Z,89.21
2022-11-20T22:54:57.862Z,89.24
2022-11-20T22:57:44.287Z,89.53
2022-11-20T23:00:31.987Z,89.38
2022-11-20T23:03:18.771Z,89.48
2022-11-20T23:06:05.537Z,89.93
2022-11-20T23:08:52.960Z,89.76
2022-11-20T23:11:42.298Z,89.71
2022-11-20T23:14:32.480Z,89.97
2022-11-20T23:17:34.536Z,90.03
2022-11-20T23:20:20.897Z,89.21
2022-11-20T23:23:07.265Z,89.07
2022-11-20T23:25:53.678Z,90.03
